White Sulphur Springs, Montana
Current Conditions -  °F | °C
As of 3:53 PM on Thursday 23 Oct 2014 (Local Time) from KHLN Reporting Station
Clear Clear  
Wind Chill: 66°   Ceiling: Unl
Heat Index: 66°   Visibility: 10mi
Dew Point: 31°   Wind: 8mph
Humidity: 27%   Direction: 230°SW
Pressure: 29.86"   Gusts: NA
Location:  46.55°N, 110.9°W
Report Text: KHLN 232153Z 23007KT 210V270 10SM CLR 19/M01 A2986 RMK AO2 SLP104 T01891006
Loading
Personal Weather Stations






























Interactive Weather Map
Tropical Storm Tracking
New forecast layout! Learn more

10-Day Weather Forecast

Advertisements
Track Severe Weather on mobile